Time;durP1;ratioP1;P1;durP2;ratioP2;P2;SDS_P1;SDS_P2;PMS_P1;PMS_P2;Temp;Humidity;BMP_temperature;BMP_pressure;BME280_temperature;BME280_humidity;BME280_pressure;Samples;Min_cycle;Max_cycle;Signal;HPM_P1;HPM_P2
2023/08/14 04:30:20;;;;;;;0.10;0.10;;;16.30;80.80;;;;;;5839743;23;20105;-77
2023/08/14 04:32:46;;;;;;;0.10;0.10;;;16.30;81.00;;;;;;4903259;29;20064;-78
2023/08/14 04:35:11;;;;;;;0.05;0.05;;;16.30;80.90;;;;;;4902606;29;20423;-77
2023/08/14 04:37:37;;;;;;;0.00;0.00;;;16.30;80.40;;;;;;4903916;29;20084;-77
2023/08/14 04:40:04;;;;;;;0.10;0.10;;;16.40;80.70;;;;;;4904327;29;20033;-77
2023/08/14 04:42:32;;;;;;;0.10;0.10;;;16.40;80.60;;;;;;4904050;29;20512;-77
2023/08/14 04:44:58;;;;;;;0.10;0.10;;;16.50;80.10;;;;;;4903910;29;20712;-77
2023/08/14 04:47:23;;;;;;;0.10;0.10;;;16.50;80.40;;;;;;4904119;29;20028;-77
2023/08/14 04:49:49;;;;;;;0.00;0.00;;;16.50;80.40;;;;;;4903905;29;20468;-76
2023/08/14 04:52:14;;;;;;;0.10;0.10;;;16.50;80.60;;;;;;4886425;29;20032;-79
2023/08/14 04:54:40;;;;;;;0.10;0.10;;;16.60;80.40;;;;;;4902766;29;20392;-78
2023/08/14 04:57:05;;;;;;;0.10;0.10;;;16.60;80.40;;;;;;4886762;29;20029;-77
2023/08/14 04:59:31;;;;;;;0.10;0.10;;;16.60;80.60;;;;;;4886686;29;20119;-77
2023/08/14 05:01:57;;;;;;;0.10;0.10;;;16.50;80.80;;;;;;4887272;29;20174;-77
2023/08/14 05:04:23;;;;;;;0.00;0.00;;;16.60;80.80;;;;;;4903958;29;20029;-77
2023/08/14 05:06:48;;;;;;;0.10;0.10;;;16.70;80.60;;;;;;4904269;29;20080;-77
2023/08/14 05:09:14;;;;;;;0.10;0.10;;;16.70;80.40;;;;;;4904291;29;20492;-78
2023/08/14 05:11:40;;;;;;;0.10;0.10;;;16.70;80.70;;;;;;4903609;29;20029;-78
2023/08/14 05:14:05;;;;;;;0.00;0.00;;;16.70;80.50;;;;;;4904043;29;20033;-78
2023/08/14 05:16:31;;;;;;;0.00;0.00;;;16.80;80.60;;;;;;4903966;29;20024;-78
2023/08/14 05:18:57;;;;;;;0.00;0.00;;;16.80;80.40;;;;;;4903971;29;20036;-78
2023/08/14 05:21:22;;;;;;;0.10;0.10;;;16.80;80.10;;;;;;4886996;29;20044;-78
2023/08/14 05:23:48;;;;;;;0.05;0.05;;;16.80;80.40;;;;;;4903522;29;20037;-78
2023/08/14 05:26:13;;;;;;;0.10;0.10;;;16.80;80.60;;;;;;4904170;29;20032;-77
2023/08/14 05:28:39;;;;;;;0.10;0.10;;;16.80;80.80;;;;;;4903343;29;20032;-77
2023/08/14 05:31:08;;;;;;;0.00;0.00;;;16.80;80.90;;;;;;4903480;29;20044;-78
2023/08/14 05:33:34;;;;;;;0.10;0.10;;;16.80;80.90;;;;;;4903343;29;20029;-77
2023/08/14 05:35:59;;;;;;;0.00;0.00;;;16.80;80.60;;;;;;4903735;29;20080;-77
2023/08/14 05:38:25;;;;;;;0.00;0.00;;;16.80;80.40;;;;;;4903482;29;20035;-77
2023/08/14 05:40:50;;;;;;;0.10;0.10;;;16.90;80.40;;;;;;4903693;29;20044;-78
2023/08/14 05:43:16;;;;;;;0.10;0.10;;;17.00;80.30;;;;;;4903175;29;20036;-78
2023/08/14 05:45:44;;;;;;;0.00;0.00;;;16.90;80.50;;;;;;4903471;29;20551;-78
2023/08/14 05:48:11;;;;;;;0.00;0.00;;;17.00;80.50;;;;;;4903313;29;20029;-78
2023/08/14 05:50:37;;;;;;;0.10;0.10;;;17.00;80.50;;;;;;4903318;29;20024;-78
2023/08/14 05:53:04;;;;;;;0.10;0.10;;;17.00;80.50;;;;;;4903472;29;20029;-78
2023/08/14 05:55:34;;;;;;;0.10;0.10;;;17.00;80.50;;;;;;4903345;29;20031;-78
2023/08/14 05:58:02;;;;;;;0.10;0.10;;;17.00;80.50;;;;;;4903387;29;20035;-78
2023/08/14 06:00:28;;;;;;;0.08;0.08;;;17.10;80.60;;;;;;4903017;29;20024;-78
2023/08/14 06:02:54;;;;;;;0.08;0.08;;;17.20;80.30;;;;;;4903105;29;20060;-78
2023/08/14 06:05:20;;;;;;;0.10;0.10;;;17.20;80.30;;;;;;4902168;29;20133;-78
2023/08/14 06:07:51;;;;;;;0.10;0.10;;;17.20;80.30;;;;;;4886025;29;20025;-78
2023/08/14 06:10:17;;;;;;;0.10;0.10;;;17.20;80.20;;;;;;4903102;29;20388;-79
2023/08/14 06:12:44;;;;;;;0.10;0.10;;;17.20;80.30;;;;;;4903264;29;20032;-79
2023/08/14 06:15:11;;;;;;;0.00;0.00;;;17.10;80.20;;;;;;4886273;29;20025;-78
2023/08/14 06:17:36;;;;;;;0.00;0.00;;;17.20;80.30;;;;;;4886296;29;20033;-78
2023/08/14 06:20:03;;;;;;;0.10;0.10;;;17.20;80.30;;;;;;4901963;29;20035;-78
2023/08/14 06:22:28;;;;;;;0.00;0.00;;;17.20;80.10;;;;;;4902980;29;20112;-78
2023/08/14 06:24:54;;;;;;;0.08;0.08;;;17.20;80.20;;;;;;4902981;29;20075;-78
2023/08/14 06:27:20;;;;;;;0.00;0.00;;;17.30;79.90;;;;;;4903364;29;20429;-79
2023/08/14 06:29:46;;;;;;;0.08;0.08;;;17.30;80.00;;;;;;4902892;29;20093;-77
2023/08/14 06:32:11;;;;;;;0.10;0.10;;;17.50;80.10;;;;;;4902479;29;20572;-78
2023/08/14 06:34:37;;;;;;;0.03;0.03;;;17.70;79.60;;;;;;4902629;29;20108;-78
2023/08/14 06:37:03;;;;;;;0.10;0.10;;;17.80;78.90;;;;;;4902720;29;20119;-78
2023/08/14 06:39:29;;;;;;;0.10;0.10;;;17.90;78.80;;;;;;4885745;29;20428;-78
2023/08/14 06:41:54;;;;;;;0.10;0.10;;;18.10;78.90;;;;;;4885870;29;20037;-78
2023/08/14 06:44:20;;;;;;;0.00;0.00;;;18.20;78.50;;;;;;4885834;29;20038;-78
2023/08/14 06:46:46;;;;;;;0.00;0.00;;;18.20;78.00;;;;;;4885613;29;20031;-78
2023/08/14 06:49:11;;;;;;;0.10;0.10;;;18.30;78.30;;;;;;4902591;29;20029;-78
2023/08/14 06:51:38;;;;;;;0.10;0.10;;;18.30;78.00;;;;;;4902328;29;20059;-78
2023/08/14 06:54:04;;;;;;;0.10;0.10;;;18.30;78.10;;;;;;4902585;29;20040;-78
2023/08/14 06:56:30;;;;;;;0.00;0.00;;;18.30;78.30;;;;;;4902353;29;20056;-78
2023/08/14 06:58:56;;;;;;;0.10;0.10;;;18.50;78.30;;;;;;4902497;29;20028;-79
2023/08/14 07:01:22;;;;;;;0.03;0.03;;;18.60;77.90;;;;;;4902351;29;20039;-78
2023/08/14 07:03:48;;;;;;;0.10;0.10;;;18.80;77.70;;;;;;4902386;29;20040;-77
2023/08/14 07:06:13;;;;;;;0.10;0.10;;;18.90;77.60;;;;;;4901882;29;20033;-78
2023/08/14 07:08:39;;;;;;;0.10;0.10;;;19.00;77.70;;;;;;4902214;29;20500;-77
2023/08/14 07:11:05;;;;;;;0.10;0.10;;;19.00;77.50;;;;;;4902335;29;20049;-77
2023/08/14 07:13:30;;;;;;;0.10;0.10;;;19.00;77.50;;;;;;4902292;29;20025;-77
2023/08/14 07:15:56;;;;;;;0.10;0.10;;;18.90;77.90;;;;;;4902363;29;20028;-77
2023/08/14 07:18:22;;;;;;;0.10;0.10;;;18.80;78.40;;;;;;4906123;29;20487;-78
2023/08/14 07:20:48;;;;;;;0.10;0.10;;;18.90;78.40;;;;;;4906379;29;20107;-77
2023/08/14 07:23:17;;;;;;;0.10;0.10;;;19.00;78.20;;;;;;4889210;29;20052;-77
2023/08/14 07:25:43;;;;;;;0.10;0.10;;;19.00;78.30;;;;;;4888946;29;20029;-77
2023/08/14 07:28:09;;;;;;;0.00;0.00;;;19.00;78.50;;;;;;4905932;29;20021;-78
2023/08/14 07:30:36;;;;;;;0.00;0.00;;;19.10;78.60;;;;;;4905061;29;20056;-77
2023/08/14 07:33:01;;;;;;;0.10;0.10;;;19.20;78.70;;;;;;4905751;29;20025;-77
2023/08/14 07:35:27;;;;;;;0.00;0.00;;;19.20;78.80;;;;;;4905701;29;20107;-77
2023/08/14 07:37:53;;;;;;;0.10;0.10;;;19.10;79.30;;;;;;4888607;29;20029;-77
2023/08/14 07:40:18;;;;;;;0.00;0.00;;;19.10;79.50;;;;;;4905686;29;20036;-77
2023/08/14 07:42:44;;;;;;;0.00;0.00;;;19.20;79.50;;;;;;4905770;29;20028;-77
2023/08/14 07:45:10;;;;;;;0.00;0.00;;;19.20;79.70;;;;;;4888383;29;20040;-77
2023/08/14 07:47:36;;;;;;;0.00;0.00;;;19.10;79.90;;;;;;4905657;29;20033;-77
2023/08/14 07:50:02;;;;;;;0.10;0.10;;;19.20;79.70;;;;;;4905481;29;20492;-77
2023/08/14 07:52:27;;;;;;;0.08;0.08;;;19.30;79.90;;;;;;4905621;29;20488;-78
2023/08/14 07:54:54;;;;;;;0.10;0.10;;;19.50;79.50;;;;;;4905325;29;20031;-77
2023/08/14 07:57:20;;;;;;;0.10;0.10;;;19.60;78.90;;;;;;4888359;29;20527;-77
2023/08/14 07:59:45;;;;;;;0.10;0.10;;;19.70;78.30;;;;;;4888153;29;20032;-77
2023/08/14 08:02:11;;;;;;;0.10;0.10;;;19.80;78.50;;;;;;4905468;29;20038;-77
2023/08/14 08:04:36;;;;;;;0.00;0.00;;;19.80;78.30;;;;;;4904865;29;20031;-77
2023/08/14 08:07:05;;;;;;;0.10;0.10;;;19.80;78.30;;;;;;4905073;29;20059;-78
2023/08/14 08:09:31;;;;;;;0.10;0.10;;;20.20;77.60;;;;;;4904902;29;20024;-78
2023/08/14 08:11:57;;;;;;;0.10;0.10;;;20.40;76.90;;;;;;4905100;29;20047;-77
2023/08/14 08:14:23;;;;;;;0.10;0.10;;;20.70;76.20;;;;;;4905010;29;20036;-78
2023/08/14 08:16:49;;;;;;;0.10;0.10;;;20.90;75.80;;;;;;4905044;29;20036;-78
2023/08/14 08:19:15;;;;;;;0.20;0.20;;;21.90;73.40;;;;;;4888252;29;20057;-78
2023/08/14 08:21:41;;;;;;;0.40;0.40;;;23.30;69.90;;;;;;4904842;29;20029;-78
2023/08/14 08:24:07;;;;;;;0.10;0.10;;;24.80;65.50;;;;;;4904724;29;20115;-78
2023/08/14 08:26:32;;;;;;;0.10;0.10;;;25.20;62.60;;;;;;4904990;29;20028;-78
2023/08/14 08:28:58;;;;;;;0.10;0.10;;;25.10;62.20;;;;;;4904626;29;20103;-78
2023/08/14 08:31:24;;;;;;;0.20;0.20;;;24.60;63.50;;;;;;4904639;29;20055;-78
2023/08/14 08:33:50;;;;;;;0.10;0.10;;;25.10;62.90;;;;;;4887613;29;20449;-78
2023/08/14 08:36:17;;;;;;;0.10;0.10;;;25.30;61.10;;;;;;4887661;29;20036;-78
2023/08/14 08:38:45;;;;;;;0.10;0.10;;;25.80;60.30;;;;;;4887991;29;20079;-78
2023/08/14 08:41:13;;;;;;;0.00;0.00;;;25.90;58.50;;;;;;4904773;29;20027;-78
2023/08/14 08:43:40;;;;;;;0.00;0.00;;;25.20;60.90;;;;;;4904262;29;20101;-78
2023/08/14 08:46:09;;;;;;;0.10;0.10;;;24.50;61.90;;;;;;4904514;29;20147;-78
2023/08/14 08:48:39;;;;;;;0.00;0.00;;;23.80;63.60;;;;;;4904380;29;20080;-78
2023/08/14 08:51:04;;;;;;;0.10;0.10;;;23.40;65.40;;;;;;4904528;29;20036;-78
2023/08/14 08:53:30;;;;;;;0.10;0.10;;;23.40;65.70;;;;;;4904076;29;20472;-78
2023/08/14 08:55:57;;;;;;;0.20;0.20;;;23.40;65.60;;;;;;4904373;29;20052;-77
2023/08/14 08:58:25;;;;;;;0.00;0.00;;;23.60;65.90;;;;;;4904423;29;20025;-78
2023/08/14 09:00:54;;;;;;;0.08;0.08;;;23.60;65.70;;;;;;4903863;29;20025;-77
2023/08/14 09:03:20;;;;;;;0.00;0.00;;;23.20;65.90;;;;;;4887083;29;20047;-77
2023/08/14 09:05:46;;;;;;;0.00;0.00;;;22.80;67.60;;;;;;4904067;29;20076;-77
2023/08/14 09:08:12;;;;;;;0.00;0.00;;;22.50;68.70;;;;;;4887384;29;20433;-78
2023/08/14 09:10:38;;;;;;;0.00;0.00;;;22.30;69.90;;;;;;4903959;29;20029;-78
2023/08/14 09:13:04;;;;;;;0.00;0.00;;;22.30;70.70;;;;;;4903807;29;20055;-78
2023/08/14 09:15:30;;;;;;;0.10;0.10;;;22.20;71.00;;;;;;4901831;29;20396;-78
2023/08/14 09:17:56;;;;;;;0.00;0.00;;;22.20;71.80;;;;;;4904005;29;20039;-78
2023/08/14 09:20:22;;;;;;;0.10;0.10;;;22.10;70.80;;;;;;4903875;29;20107;-78
2023/08/14 09:22:48;;;;;;;0.10;0.10;;;22.10;69.80;;;;;;4902487;29;20040;-78
2023/08/14 09:25:15;;;;;;;0.10;0.10;;;22.30;69.00;;;;;;4903681;29;20056;-78
2023/08/14 09:27:44;;;;;;;0.10;0.10;;;22.60;69.40;;;;;;4903759;29;20064;-77
2023/08/14 09:30:13;;;;;;;0.10;0.10;;;22.70;68.50;;;;;;4903284;29;20029;-78
2023/08/14 09:32:39;;;;;;;0.10;0.10;;;23.40;67.20;;;;;;4903641;29;20067;-78
2023/08/14 09:35:05;;;;;;;0.10;0.10;;;23.30;65.60;;;;;;4902947;29;20028;-78
2023/08/14 09:37:31;;;;;;;0.13;0.13;;;23.30;66.80;;;;;;4903509;29;20044;-78
2023/08/14 09:40:15;;;;;;;0.10;0.10;;;24.00;65.20;;;;;;4901457;29;20040;-78
2023/08/14 09:42:45;;;;;;;0.10;0.10;;;24.10;65.20;;;;;;4903871;29;20024;-78
2023/08/14 09:45:16;;;;;;;0.10;0.10;;;24.10;64.30;;;;;;4903472;29;20032;-78
2023/08/14 09:47:43;;;;;;;0.10;0.10;;;24.00;64.00;;;;;;4903398;29;20060;-79
2023/08/14 09:50:09;;;;;;;0.10;0.10;;;24.30;63.30;;;;;;4903281;29;20540;-78
2023/08/14 09:52:35;;;;;;;0.10;0.10;;;24.30;63.00;;;;;;4901837;29;20025;-78
2023/08/14 09:55:02;;;;;;;0.10;0.10;;;24.00;62.90;;;;;;4903112;29;20029;-78
2023/08/14 09:57:27;;;;;;;0.10;0.10;;;24.10;63.50;;;;;;4902841;29;20024;-78
2023/08/14 09:59:53;;;;;;;0.10;0.10;;;24.40;63.00;;;;;;4903065;29;20103;-78
2023/08/14 10:02:22;;;;;;;0.10;0.10;;;24.70;61.70;;;;;;4903110;29;20546;-78
2023/08/14 10:04:48;;;;;;;0.10;0.10;;;24.60;61.50;;;;;;4902702;29;20025;-78
2023/08/14 10:07:15;;;;;;;0.10;0.10;;;24.40;61.70;;;;;;4885797;29;20033;-78
2023/08/14 10:09:45;;;;;;;0.10;0.10;;;24.20;61.00;;;;;;4903157;29;20039;-78
2023/08/14 10:12:17;;;;;;;0.10;0.10;;;23.90;61.80;;;;;;4886050;29;20396;-78
2023/08/14 10:14:50;;;;;;;0.10;0.10;;;23.80;62.60;;;;;;4902980;29;20032;-78
2023/08/14 10:17:21;;;;;;;0.10;0.10;;;23.90;62.10;;;;;;4899276;29;20032;-78
2023/08/14 10:19:51;;;;;;;0.10;0.10;;;24.00;61.70;;;;;;4881868;29;20037;-78
2023/08/14 10:22:19;;;;;;;0.10;0.10;;;24.20;61.70;;;;;;4902746;29;20032;-78
2023/08/14 10:24:45;;;;;;;0.10;0.10;;;24.30;62.30;;;;;;4902728;29;20510;-78
2023/08/14 10:27:11;;;;;;;0.10;0.10;;;24.30;61.30;;;;;;4902871;29;20417;-78
2023/08/14 10:29:38;;;;;;;0.10;0.10;;;24.20;60.40;;;;;;4902833;29;20080;-78
2023/08/14 10:32:06;;;;;;;0.10;0.10;;;24.00;60.60;;;;;;4902034;29;20056;-78
2023/08/14 10:34:33;;;;;;;0.10;0.10;;;24.00;61.30;;;;;;4902391;29;20037;-78
2023/08/14 10:36:58;;;;;;;0.10;0.10;;;24.20;61.00;;;;;;4902446;29;20028;-78
2023/08/14 10:39:34;;;;;;;0.10;0.10;;;24.30;61.60;;;;;;4902617;29;20044;-79
2023/08/14 10:42:03;;;;;;;0.10;0.10;;;24.40;61.10;;;;;;4885691;29;20041;-78
2023/08/14 10:44:35;;;;;;;0.10;0.10;;;24.60;60.30;;;;;;4902555;29;20041;-78
2023/08/14 10:47:05;;;;;;;0.10;0.10;;;24.70;58.90;;;;;;4902610;29;20073;-78
2023/08/14 10:49:45;;;;;;;0.10;0.10;;;24.60;58.90;;;;;;4902647;29;20483;-78
2023/08/14 10:52:20;;;;;;;0.10;0.10;;;24.70;59.40;;;;;;4905936;29;20045;-78
2023/08/14 10:54:51;;;;;;;0.10;0.10;;;24.70;59.40;;;;;;4906278;29;20048;-78
2023/08/14 10:57:16;;;;;;;0.10;0.10;;;24.70;58.20;;;;;;4889444;29;20116;-78
2023/08/14 10:59:42;;;;;;;0.10;0.10;;;24.60;58.40;;;;;;4906385;29;20064;-78
2023/08/14 11:02:10;;;;;;;0.17;0.10;;;24.50;58.30;;;;;;4906264;29;20044;-78
2023/08/14 11:04:59;;;;;;;0.10;0.10;;;24.50;58.20;;;;;;4889093;29;20499;-78
2023/08/14 11:07:29;;;;;;;0.10;0.10;;;24.50;58.20;;;;;;4889279;29;20029;-78
2023/08/14 11:09:57;;;;;;;0.10;0.10;;;24.60;58.20;;;;;;4889309;29;20035;-78
2023/08/14 11:12:23;;;;;;;0.10;0.10;;;24.70;56.20;;;;;;4905564;29;20474;-79
2023/08/14 11:14:49;;;;;;;0.10;0.10;;;24.90;56.10;;;;;;4906091;29;20036;-78
2023/08/14 11:17:15;;;;;;;0.10;0.10;;;24.90;54.80;;;;;;4906049;29;20047;-78
2023/08/14 11:19:40;;;;;;;0.00;0.00;;;25.10;55.90;;;;;;4906129;29;20036;-78
2023/08/14 11:22:06;;;;;;;0.10;0.10;;;25.30;55.40;;;;;;4905746;29;20029;-78
2023/08/14 11:24:32;;;;;;;0.10;0.10;;;25.20;54.60;;;;;;4905894;29;20036;-78
2023/08/14 11:26:59;;;;;;;0.10;0.10;;;25.40;54.70;;;;;;4906140;29;20099;-78
2023/08/14 11:29:24;;;;;;;0.10;0.10;;;25.80;54.20;;;;;;4905996;29;20039;-78
2023/08/14 11:31:51;;;;;;;0.10;0.10;;;26.30;54.80;;;;;;4905415;29;20041;-78
2023/08/14 11:34:18;;;;;;;0.10;0.10;;;26.30;54.40;;;;;;4905548;29;20539;-78
2023/08/14 11:36:59;;;;;;;0.10;0.10;;;26.30;53.60;;;;;;4905373;29;20495;-79
2023/08/14 11:39:25;;;;;;;0.10;0.10;;;26.30;52.90;;;;;;4905557;29;20164;-79
2023/08/14 11:41:51;;;;;;;0.10;0.10;;;26.30;53.40;;;;;;4905792;29;20039;-78
2023/08/14 11:44:17;;;;;;;0.10;0.10;;;26.30;52.50;;;;;;4904114;29;20497;-79
2023/08/14 11:46:43;;;;;;;0.10;0.10;;;26.30;52.00;;;;;;4905659;29;20039;-78
2023/08/14 11:49:11;;;;;;;0.10;0.10;;;26.30;51.00;;;;;;4905379;29;20021;-78
2023/08/14 11:51:40;;;;;;;0.10;0.10;;;26.20;50.00;;;;;;4904027;29;20029;-78
2023/08/14 11:54:07;;;;;;;0.10;0.10;;;26.20;50.00;;;;;;4905319;29;20107;-79
2023/08/14 11:56:33;;;;;;;0.10;0.10;;;26.30;49.50;;;;;;4905392;29;20028;-78
2023/08/14 11:58:59;;;;;;;0.00;0.00;;;26.30;48.70;;;;;;4905352;29;20035;-78
2023/08/14 12:01:25;;;;;;;0.10;0.10;;;26.20;48.30;;;;;;4905121;29;20029;-78
2023/08/14 12:03:51;;;;;;;0.00;0.00;;;26.20;48.50;;;;;;4904311;29;20036;-78
2023/08/14 12:06:17;;;;;;;0.00;0.00;;;26.20;48.70;;;;;;4905073;29;20021;-78
2023/08/14 12:08:43;;;;;;;0.10;0.10;;;26.10;48.40;;;;;;4905019;29;20021;-78
2023/08/14 12:11:08;;;;;;;0.10;0.10;;;26.00;49.20;;;;;;4887987;29;20028;-78
2023/08/14 12:13:34;;;;;;;0.00;0.00;;;26.20;50.20;;;;;;4888111;29;20052;-78
2023/08/14 12:16:07;;;;;;;0.10;0.10;;;26.20;50.20;;;;;;4888116;29;20037;-78
2023/08/14 12:18:34;;;;;;;0.10;0.10;;;26.10;50.40;;;;;;4888076;29;20028;-78
2023/08/14 12:20:59;;;;;;;0.10;0.10;;;26.10;51.20;;;;;;4904846;29;20029;-78
2023/08/14 12:23:25;;;;;;;0.10;0.10;;;26.20;52.00;;;;;;4904230;29;20071;-79
2023/08/14 12:25:52;;;;;;;0.05;0.05;;;26.20;50.60;;;;;;4904825;29;20499;-78
2023/08/14 12:28:19;;;;;;;0.00;0.00;;;26.20;51.00;;;;;;4904655;29;20024;-78
2023/08/14 12:30:49;;;;;;;0.10;0.10;;;26.30;51.60;;;;;;4904311;29;20040;-78
2023/08/14 12:33:15;;;;;;;0.00;0.00;;;26.10;52.60;;;;;;4904590;29;20172;-78
2023/08/14 12:35:41;;;;;;;0.10;0.10;;;26.00;53.30;;;;;;4887650;29;20029;-78
2023/08/14 12:38:06;;;;;;;0.00;0.00;;;25.90;53.50;;;;;;4904245;29;20039;-79
2023/08/14 12:40:33;;;;;;;0.08;0.08;;;25.80;53.00;;;;;;4904468;29;20025;-78
2023/08/14 12:42:59;;;;;;;0.10;0.10;;;25.80;53.80;;;;;;4904506;29;20036;-78
2023/08/14 12:45:24;;;;;;;0.08;0.08;;;25.70;53.80;;;;;;4904429;29;20071;-78
2023/08/14 12:47:50;;;;;;;0.10;0.10;;;25.70;54.30;;;;;;4904548;29;20499;-79
2023/08/14 12:50:16;;;;;;;0.00;0.00;;;25.80;55.10;;;;;;4904547;29;20380;-78
2023/08/14 12:52:42;;;;;;;0.00;0.00;;;25.80;55.30;;;;;;4887465;29;20056;-79
2023/08/14 12:55:07;;;;;;;0.10;0.10;;;25.70;53.90;;;;;;4904218;29;20052;-78
2023/08/14 12:57:33;;;;;;;0.00;0.00;;;25.70;54.40;;;;;;4887404;29;20040;-79
2023/08/14 12:59:59;;;;;;;0.10;0.10;;;25.80;54.70;;;;;;4903939;29;20074;-78
2023/08/14 13:02:26;;;;;;;0.03;0.03;;;25.80;54.80;;;;;;4904225;29;20571;-78
2023/08/14 13:04:54;;;;;;;0.08;0.08;;;25.70;54.00;;;;;;4903917;29;20504;-78
2023/08/14 13:07:20;;;;;;;0.10;0.10;;;25.50;54.60;;;;;;4904073;29;20025;-78
2023/08/14 13:09:45;;;;;;;0.03;0.03;;;25.30;55.60;;;;;;4903480;29;20029;-78
2023/08/14 13:12:11;;;;;;;0.10;0.10;;;25.30;55.90;;;;;;4903955;29;20024;-78
2023/08/14 13:14:36;;;;;;;0.10;0.10;;;25.40;56.40;;;;;;4902980;29;20456;-78
2023/08/14 13:17:02;;;;;;;0.00;0.00;;;25.30;55.00;;;;;;4904034;29;20035;-78
2023/08/14 13:19:28;;;;;;;0.00;0.00;;;25.30;56.20;;;;;;4904104;29;20119;-78
2023/08/14 13:21:53;;;;;;;0.10;0.10;;;25.30;56.60;;;;;;4886828;29;20084;-78
2023/08/14 13:24:19;;;;;;;0.10;0.10;;;25.30;56.60;;;;;;4903709;29;20036;-78
2023/08/14 13:26:45;;;;;;;0.00;0.00;;;25.30;57.20;;;;;;4903822;29;20400;-78
2023/08/14 13:29:10;;;;;;;0.10;0.10;;;25.30;56.70;;;;;;4903642;29;20037;-78
2023/08/14 13:31:36;;;;;;;0.00;0.00;;;25.40;56.60;;;;;;4903396;29;20045;-78
2023/08/14 13:34:01;;;;;;;0.10;0.10;;;25.40;56.60;;;;;;4892244;29;20036;-78
2023/08/14 13:36:27;;;;;;;0.10;0.10;;;25.40;57.10;;;;;;4903609;29;20025;-78
2023/08/14 13:38:53;;;;;;;0.10;0.10;;;25.60;56.70;;;;;;4903385;29;20563;-78
2023/08/14 13:41:18;;;;;;;0.10;0.10;;;25.60;56.80;;;;;;4903622;29;20028;-78
2023/08/14 13:43:44;;;;;;;0.10;0.10;;;25.50;56.60;;;;;;4903303;29;20112;-78
2023/08/14 13:46:09;;;;;;;0.00;0.00;;;25.70;57.10;;;;;;4903425;29;20025;-78
2023/08/14 13:48:35;;;;;;;0.00;0.00;;;25.80;56.70;;;;;;4903141;29;20036;-79
2023/08/14 13:51:01;;;;;;;0.10;0.10;;;25.90;56.60;;;;;;4903322;29;20020;-77
2023/08/14 13:53:26;;;;;;;0.10;0.10;;;25.90;56.80;;;;;;4903157;29;20503;-78
2023/08/14 13:55:52;;;;;;;0.00;0.00;;;25.80;57.10;;;;;;4903331;29;20433;-78
2023/08/14 13:58:17;;;;;;;0.10;0.10;;;25.60;57.50;;;;;;4903207;29;20436;-78
2023/08/14 14:00:43;;;;;;;0.00;0.00;;;25.60;58.30;;;;;;4902833;29;20024;-78
2023/08/14 14:03:09;;;;;;;0.10;0.10;;;25.50;58.30;;;;;;4885998;29;20033;-77
2023/08/14 14:05:34;;;;;;;0.10;0.10;;;25.40;58.30;;;;;;4902897;29;20365;-78
2023/08/14 14:08:00;;;;;;;0.10;0.10;;;25.40;57.20;;;;;;4902959;29;20051;-77
2023/08/14 14:10:26;;;;;;;0.00;0.00;;;25.50;58.20;;;;;;4902933;29;20103;-77
2023/08/14 14:12:53;;;;;;;0.10;0.10;;;25.40;57.80;;;;;;4902867;29;20088;-78
2023/08/14 14:15:18;;;;;;;0.00;0.00;;;25.50;58.20;;;;;;4902966;29;20206;-78
2023/08/14 14:17:44;;;;;;;0.00;0.00;;;25.40;58.30;;;;;;4902531;29;20045;-78
2023/08/14 14:20:10;;;;;;;0.10;0.10;;;25.30;59.00;;;;;;4902553;29;20028;-78
2023/08/14 14:22:36;;;;;;;0.00;0.00;;;25.30;59.50;;;;;;4902964;29;20440;-78
2023/08/14 14:25:02;;;;;;;0.00;0.00;;;25.10;60.40;;;;;;4902430;29;20025;-78
2023/08/14 14:27:28;;;;;;;0.00;0.00;;;25.00;60.50;;;;;;4885943;29;20039;-78
2023/08/14 14:29:54;;;;;;;0.10;0.10;;;24.90;61.40;;;;;;4902618;29;20096;-78
2023/08/14 14:32:20;;;;;;;0.00;0.00;;;25.00;62.30;;;;;;4902363;29;20140;-78
2023/08/14 14:34:46;;;;;;;0.00;0.00;;;25.00;61.80;;;;;;4885614;29;20032;-78
2023/08/14 14:37:12;;;;;;;0.10;0.10;;;24.90;61.80;;;;;;4902540;29;20032;-78
2023/08/14 14:39:37;;;;;;;0.10;0.10;;;24.90;61.90;;;;;;4902471;29;20029;-78
2023/08/14 14:42:03;;;;;;;0.00;0.00;;;25.00;61.80;;;;;;4902715;29;20028;-78
2023/08/14 14:44:29;;;;;;;0.00;0.00;;;25.00;61.30;;;;;;4885570;29;20063;-78
2023/08/14 14:46:54;;;;;;;0.00;0.00;;;25.00;60.70;;;;;;4902614;29;20029;-78
2023/08/14 14:49:20;;;;;;;0.05;0.05;;;24.90;60.10;;;;;;4902482;29;20060;-78
2023/08/14 14:51:45;;;;;;;0.00;0.00;;;25.00;61.40;;;;;;4902374;29;20099;-78
2023/08/14 14:54:11;;;;;;;0.00;0.00;;;25.20;61.70;;;;;;4902507;29;20539;-78
2023/08/14 14:56:37;;;;;;;0.00;0.00;;;25.30;61.10;;;;;;4902509;29;20496;-78
2023/08/14 14:59:02;;;;;;;0.00;0.00;;;25.10;61.50;;;;;;4902354;29;20017;-78
2023/08/14 15:01:28;;;;;;;0.00;0.00;;;25.00;61.90;;;;;;4901869;29;20032;-78
2023/08/14 15:03:53;;;;;;;0.00;0.00;;;24.90;62.00;;;;;;4902213;29;20049;-78
2023/08/14 15:06:19;;;;;;;0.03;0.03;;;24.70;62.10;;;;;;4902480;29;20100;-78
2023/08/14 15:08:45;;;;;;;0.00;0.00;;;24.50;62.60;;;;;;4902367;29;20025;-78
2023/08/14 15:11:10;;;;;;;0.00;0.00;;;24.40;63.10;;;;;;4902711;29;20424;-78
2023/08/14 15:13:36;;;;;;;0.10;0.10;;;24.30;64.00;;;;;;4902186;29;20076;-78
2023/08/14 15:16:02;;;;;;;0.10;0.10;;;24.60;63.80;;;;;;4902332;29;20036;-78
2023/08/14 15:18:28;;;;;;;0.10;0.10;;;25.10;63.70;;;;;;4902343;29;20399;-78
2023/08/14 15:20:55;;;;;;;0.10;0.10;;;25.50;62.70;;;;;;4902501;29;20024;-78
2023/08/14 15:23:21;;;;;;;0.00;0.00;;;25.60;60.10;;;;;;4902207;29;20020;-78
2023/08/14 15:25:47;;;;;;;0.10;0.10;;;25.60;60.80;;;;;;4885286;29;20040;-78
2023/08/14 15:28:12;;;;;;;0.00;0.00;;;25.70;61.40;;;;;;4902126;29;20035;-77
2023/08/14 15:30:42;;;;;;;0.00;0.00;;;25.70;60.60;;;;;;4901977;29;20494;-78
2023/08/14 15:33:09;;;;;;;0.03;0.03;;;25.60;60.00;;;;;;4902088;29;20048;-78
2023/08/14 15:35:35;;;;;;;0.00;0.00;;;25.20;60.60;;;;;;4885356;29;20044;-78
2023/08/14 15:38:01;;;;;;;0.05;0.05;;;24.90;61.40;;;;;;4903506;29;20399;-78
2023/08/14 15:40:27;;;;;;;0.00;0.00;;;24.80;62.00;;;;;;4905517;29;20107;-78
2023/08/14 15:42:52;;;;;;;0.00;0.00;;;24.80;62.30;;;;;;4905794;29;20029;-78
2023/08/14 15:45:18;;;;;;;0.00;0.00;;;24.80;62.50;;;;;;4899328;29;20036;-78
2023/08/14 15:47:45;;;;;;;0.00;0.00;;;24.70;62.50;;;;;;4905592;29;20044;-78
2023/08/14 15:50:11;;;;;;;0.00;0.00;;;24.70;62.10;;;;;;4904098;29;20024;-78
2023/08/14 15:52:37;;;;;;;0.00;0.00;;;24.70;62.80;;;;;;4903949;29;20020;-78
2023/08/14 15:55:03;;;;;;;0.08;0.08;;;24.80;62.00;;;;;;4905437;29;20029;-78
2023/08/14 15:57:29;;;;;;;0.00;0.00;;;25.00;62.40;;;;;;4905362;29;20025;-78
2023/08/14 15:59:54;;;;;;;0.00;0.00;;;24.90;62.40;;;;;;4905162;29;20035;-78
2023/08/14 16:02:23;;;;;;;0.00;0.00;;;24.80;62.50;;;;;;4902436;29;20385;-78
2023/08/14 16:04:49;;;;;;;0.00;0.00;;;24.80;62.90;;;;;;4877612;29;20170;-78
2023/08/14 16:07:16;;;;;;;0.00;0.00;;;24.80;63.40;;;;;;4886353;29;20117;-78
2023/08/14 16:09:43;;;;;;;0.10;0.10;;;25.00;62.90;;;;;;4891522;29;20012;-78
2023/08/14 16:12:09;;;;;;;0.00;0.00;;;25.00;62.60;;;;;;4905132;29;20065;-78
2023/08/14 16:14:35;;;;;;;0.00;0.00;;;24.90;62.40;;;;;;4905032;29;20027;-78
2023/08/14 16:17:01;;;;;;;0.10;0.10;;;24.80;63.20;;;;;;4905130;29;20041;-78
2023/08/14 16:19:27;;;;;;;0.00;0.00;;;24.70;63.90;;;;;;4904868;29;20037;-78
2023/08/14 16:21:52;;;;;;;0.00;0.00;;;24.50;64.20;;;;;;4905022;29;20039;-78
2023/08/14 16:24:18;;;;;;;0.10;0.10;;;24.40;64.00;;;;;;4903422;29;20834;-78
2023/08/14 16:26:44;;;;;;;0.00;0.00;;;24.30;64.20;;;;;;4905039;29;20103;-78
2023/08/14 16:29:09;;;;;;;0.00;0.00;;;24.30;63.90;;;;;;4887699;29;20027;-78
2023/08/14 16:31:35;;;;;;;0.00;0.00;;;24.30;63.90;;;;;;4904380;29;20059;-78
2023/08/14 16:34:00;;;;;;;0.00;0.00;;;24.30;64.20;;;;;;4887629;29;20040;-78
2023/08/14 16:36:26;;;;;;;0.00;0.00;;;24.20;64.40;;;;;;4904676;29;20032;-78
2023/08/14 16:38:52;;;;;;;0.00;0.00;;;24.10;64.20;;;;;;4904555;29;20056;-78
2023/08/14 16:41:17;;;;;;;0.10;0.10;;;24.20;64.30;;;;;;4904804;29;20124;-78
2023/08/14 16:43:43;;;;;;;0.00;0.00;;;24.20;64.50;;;;;;4887685;29;20088;-78
2023/08/14 16:46:08;;;;;;;0.00;0.00;;;24.10;64.80;;;;;;4904443;29;20115;-78
2023/08/14 16:48:34;;;;;;;0.00;0.00;;;24.10;65.10;;;;;;4904184;29;20025;-78
2023/08/14 16:51:00;;;;;;;0.03;0.03;;;24.10;65.50;;;;;;4904554;29;20539;-78
2023/08/14 16:53:29;;;;;;;0.10;0.10;;;24.00;65.40;;;;;;4887330;29;20506;-78
2023/08/14 16:55:55;;;;;;;0.00;0.00;;;24.10;65.50;;;;;;4904360;29;20028;-78
2023/08/14 16:58:20;;;;;;;0.00;0.00;;;24.10;64.80;;;;;;4887159;29;20172;-78
2023/08/14 17:00:46;;;;;;;0.00;0.00;;;24.10;63.90;;;;;;4904101;29;20037;-78
2023/08/14 17:03:12;;;;;;;0.00;0.00;;;24.10;64.70;;;;;;4904251;29;20024;-77
2023/08/14 17:05:38;;;;;;;0.00;0.00;;;24.20;64.70;;;;;;4904028;29;20036;-78
2023/08/14 17:08:04;;;;;;;0.00;0.00;;;24.30;64.80;;;;;;4887183;29;20035;-78
2023/08/14 17:10:31;;;;;;;0.10;0.10;;;24.30;64.80;;;;;;4903753;29;20526;-77
2023/08/14 17:12:57;;;;;;;0.00;0.00;;;24.30;64.70;;;;;;4903910;29;20025;-78